sensor_id;sensor_type;location;lat;lon;timestamp;P1;durP1;ratioP1;P2;durP2;ratioP2
36585;SDS011;22591;48.314;11.562;2022-08-21T00:01:46;53.30;;;48.97;;
36585;SDS011;22591;48.314;11.562;2022-08-21T00:04:12;54.20;;;49.67;;
36585;SDS011;22591;48.314;11.562;2022-08-21T00:06:38;52.60;;;48.28;;
36585;SDS011;22591;48.314;11.562;2022-08-21T00:09:04;51.85;;;47.63;;
36585;SDS011;22591;48.314;11.562;2022-08-21T00:11:32;51.97;;;47.50;;
36585;SDS011;22591;48.314;11.562;2022-08-21T00:14:00;49.95;;;45.90;;
36585;SDS011;22591;48.314;11.562;2022-08-21T00:16:26;52.03;;;47.75;;
36585;SDS011;22591;48.314;11.562;2022-08-21T00:18:51;53.45;;;49.03;;
36585;SDS011;22591;48.314;11.562;2022-08-21T00:21:17;52.25;;;47.75;;
36585;SDS011;22591;48.314;11.562;2022-08-21T00:23:43;51.47;;;47.47;;
36585;SDS011;22591;48.314;11.562;2022-08-21T00:26:09;52.72;;;48.38;;
36585;SDS011;22591;48.314;11.562;2022-08-21T00:28:34;55.03;;;50.33;;
36585;SDS011;22591;48.314;11.562;2022-08-21T00:31:00;53.83;;;49.55;;
36585;SDS011;22591;48.314;11.562;2022-08-21T00:33:28;52.83;;;48.42;;
36585;SDS011;22591;48.314;11.562;2022-08-21T00:35:55;54.00;;;49.70;;
36585;SDS011;22591;48.314;11.562;2022-08-21T00:38:21;50.90;;;46.85;;
36585;SDS011;22591;48.314;11.562;2022-08-21T00:40:51;51.30;;;47.33;;
36585;SDS011;22591;48.314;11.562;2022-08-21T00:43:26;56.03;;;51.17;;
36585;SDS011;22591;48.314;11.562;2022-08-21T00:45:54;52.08;;;47.25;;
36585;SDS011;22591;48.314;11.562;2022-08-21T00:48:21;55.53;;;50.83;;
36585;SDS011;22591;48.314;11.562;2022-08-21T00:50:56;52.03;;;47.72;;
36585;SDS011;22591;48.314;11.562;2022-08-21T00:53:24;54.10;;;49.80;;
36585;SDS011;22591;48.314;11.562;2022-08-21T00:55:52;53.13;;;48.80;;
36585;SDS011;22591;48.314;11.562;2022-08-21T00:58:19;55.45;;;50.88;;
36585;SDS011;22591;48.314;11.562;2022-08-21T01:00:46;53.83;;;49.08;;
36585;SDS011;22591;48.314;11.562;2022-08-21T01:03:15;53.75;;;49.25;;
36585;SDS011;22591;48.314;11.562;2022-08-21T01:05:43;52.38;;;48.35;;
36585;SDS011;22591;48.314;11.562;2022-08-21T01:08:10;51.42;;;47.53;;
36585;SDS011;22591;48.314;11.562;2022-08-21T01:10:38;54.90;;;50.25;;
36585;SDS011;22591;48.314;11.562;2022-08-21T01:13:06;53.15;;;48.95;;
36585;SDS011;22591;48.314;11.562;2022-08-21T01:15:36;52.17;;;47.95;;
36585;SDS011;22591;48.314;11.562;2022-08-21T01:18:04;55.60;;;50.95;;
36585;SDS011;22591;48.314;11.562;2022-08-21T01:20:32;52.45;;;48.35;;
36585;SDS011;22591;48.314;11.562;2022-08-21T01:22:59;54.05;;;49.60;;
36585;SDS011;22591;48.314;11.562;2022-08-21T01:25:26;53.53;;;49.22;;
36585;SDS011;22591;48.314;11.562;2022-08-21T01:27:51;53.33;;;49.13;;
36585;SDS011;22591;48.314;11.562;2022-08-21T01:30:21;53.40;;;49.20;;
36585;SDS011;22591;48.314;11.562;2022-08-21T01:32:49;54.90;;;50.60;;
36585;SDS011;22591;48.314;11.562;2022-08-21T01:35:16;53.08;;;48.78;;
36585;SDS011;22591;48.314;11.562;2022-08-21T01:37:44;54.10;;;49.40;;
36585;SDS011;22591;48.314;11.562;2022-08-21T01:40:11;51.80;;;47.83;;
36585;SDS011;22591;48.314;11.562;2022-08-21T01:42:37;50.35;;;46.53;;
36585;SDS011;22591;48.314;11.562;2022-08-21T01:45:04;50.50;;;46.65;;
36585;SDS011;22591;48.314;11.562;2022-08-21T01:47:31;49.03;;;45.35;;
36585;SDS011;22591;48.314;11.562;2022-08-21T01:49:56;52.60;;;48.45;;
36585;SDS011;22591;48.314;11.562;2022-08-21T01:52:22;51.35;;;47.35;;
36585;SDS011;22591;48.314;11.562;2022-08-21T01:54:48;53.55;;;49.22;;
36585;SDS011;22591;48.314;11.562;2022-08-21T01:57:13;50.85;;;47.05;;
36585;SDS011;22591;48.314;11.562;2022-08-21T01:59:39;52.63;;;48.53;;
36585;SDS011;22591;48.314;11.562;2022-08-21T02:02:05;51.58;;;47.60;;
36585;SDS011;22591;48.314;11.562;2022-08-21T02:04:31;50.03;;;46.08;;
36585;SDS011;22591;48.314;11.562;2022-08-21T02:06:57;49.67;;;45.75;;
36585;SDS011;22591;48.314;11.562;2022-08-21T02:09:23;50.03;;;46.05;;
36585;SDS011;22591;48.314;11.562;2022-08-21T02:11:49;49.88;;;46.08;;
36585;SDS011;22591;48.314;11.562;2022-08-21T02:14:16;50.83;;;46.88;;
36585;SDS011;22591;48.314;11.562;2022-08-21T02:16:42;50.83;;;47.00;;
36585;SDS011;22591;48.314;11.562;2022-08-21T02:19:09;52.42;;;48.15;;
36585;SDS011;22591;48.314;11.562;2022-08-21T02:21:36;51.40;;;47.63;;
36585;SDS011;22591;48.314;11.562;2022-08-21T02:24:01;53.60;;;49.25;;
36585;SDS011;22591;48.314;11.562;2022-08-21T02:26:27;56.15;;;51.75;;
36585;SDS011;22591;48.314;11.562;2022-08-21T02:28:53;57.83;;;52.95;;
36585;SDS011;22591;48.314;11.562;2022-08-21T02:31:18;54.50;;;50.25;;
36585;SDS011;22591;48.314;11.562;2022-08-21T02:33:47;53.35;;;49.20;;
36585;SDS011;22591;48.314;11.562;2022-08-21T02:36:13;57.10;;;52.50;;
36585;SDS011;22591;48.314;11.562;2022-08-21T02:38:40;58.90;;;54.13;;
36585;SDS011;22591;48.314;11.562;2022-08-21T02:41:07;55.42;;;50.88;;
36585;SDS011;22591;48.314;11.562;2022-08-21T02:43:35;57.50;;;52.80;;
36585;SDS011;22591;48.314;11.562;2022-08-21T02:46:02;55.58;;;50.88;;
36585;SDS011;22591;48.314;11.562;2022-08-21T02:48:29;57.17;;;52.17;;
36585;SDS011;22591;48.314;11.562;2022-08-21T02:50:58;55.90;;;51.30;;
36585;SDS011;22591;48.314;11.562;2022-08-21T02:53:26;58.35;;;53.65;;
36585;SDS011;22591;48.314;11.562;2022-08-21T02:55:53;56.78;;;52.28;;
36585;SDS011;22591;48.314;11.562;2022-08-21T02:58:23;59.08;;;54.20;;
36585;SDS011;22591;48.314;11.562;2022-08-21T03:00:50;58.10;;;53.30;;
36585;SDS011;22591;48.314;11.562;2022-08-21T03:03:16;54.35;;;50.20;;
36585;SDS011;22591;48.314;11.562;2022-08-21T03:05:42;60.58;;;55.55;;
36585;SDS011;22591;48.314;11.562;2022-08-21T03:08:09;60.35;;;55.30;;
36585;SDS011;22591;48.314;11.562;2022-08-21T03:10:36;60.60;;;55.60;;
36585;SDS011;22591;48.314;11.562;2022-08-21T03:13:04;59.75;;;54.85;;
36585;SDS011;22591;48.314;11.562;2022-08-21T03:15:30;63.00;;;57.47;;
36585;SDS011;22591;48.314;11.562;2022-08-21T03:17:56;65.50;;;59.75;;
36585;SDS011;22591;48.314;11.562;2022-08-21T03:20:23;62.45;;;57.28;;
36585;SDS011;22591;48.314;11.562;2022-08-21T03:22:50;61.20;;;55.80;;
36585;SDS011;22591;48.314;11.562;2022-08-21T03:25:17;62.90;;;57.40;;
36585;SDS011;22591;48.314;11.562;2022-08-21T03:27:43;63.30;;;57.83;;
36585;SDS011;22591;48.314;11.562;2022-08-21T03:30:10;61.80;;;56.50;;
36585;SDS011;22591;48.314;11.562;2022-08-21T03:32:36;60.30;;;55.35;;
36585;SDS011;22591;48.314;11.562;2022-08-21T03:35:02;63.83;;;58.08;;
36585;SDS011;22591;48.314;11.562;2022-08-21T03:37:29;66.57;;;60.53;;
36585;SDS011;22591;48.314;11.562;2022-08-21T03:39:55;64.30;;;58.90;;
36585;SDS011;22591;48.314;11.562;2022-08-21T03:42:21;60.58;;;55.17;;
36585;SDS011;22591;48.314;11.562;2022-08-21T03:44:46;64.03;;;58.40;;
36585;SDS011;22591;48.314;11.562;2022-08-21T03:47:12;64.20;;;58.80;;
36585;SDS011;22591;48.314;11.562;2022-08-21T03:49:38;63.30;;;58.03;;
36585;SDS011;22591;48.314;11.562;2022-08-21T03:52:04;62.80;;;56.85;;
36585;SDS011;22591;48.314;11.562;2022-08-21T03:54:30;63.08;;;57.60;;
36585;SDS011;22591;48.314;11.562;2022-08-21T03:56:56;62.25;;;56.75;;
36585;SDS011;22591;48.314;11.562;2022-08-21T03:59:22;61.45;;;56.03;;
36585;SDS011;22591;48.314;11.562;2022-08-21T04:02:06;63.65;;;58.13;;
36585;SDS011;22591;48.314;11.562;2022-08-21T04:04:32;67.80;;;61.85;;
36585;SDS011;22591;48.314;11.562;2022-08-21T04:06:58;66.40;;;60.65;;
36585;SDS011;22591;48.314;11.562;2022-08-21T04:09:24;64.05;;;58.17;;
36585;SDS011;22591;48.314;11.562;2022-08-21T04:11:51;63.90;;;58.45;;
36585;SDS011;22591;48.314;11.562;2022-08-21T04:14:17;64.45;;;58.85;;
36585;SDS011;22591;48.314;11.562;2022-08-21T04:16:43;63.97;;;58.38;;
36585;SDS011;22591;48.314;11.562;2022-08-21T04:19:09;62.78;;;57.45;;
36585;SDS011;22591;48.314;11.562;2022-08-21T04:21:36;65.15;;;59.67;;
36585;SDS011;22591;48.314;11.562;2022-08-21T04:24:03;61.47;;;56.25;;
36585;SDS011;22591;48.314;11.562;2022-08-21T04:26:32;61.05;;;55.75;;
36585;SDS011;22591;48.314;11.562;2022-08-21T04:28:59;61.38;;;56.03;;
36585;SDS011;22591;48.314;11.562;2022-08-21T04:31:25;63.03;;;57.38;;
36585;SDS011;22591;48.314;11.562;2022-08-21T04:33:53;64.20;;;58.92;;
36585;SDS011;22591;48.314;11.562;2022-08-21T04:36:19;68.60;;;62.47;;
36585;SDS011;22591;48.314;11.562;2022-08-21T04:38:45;63.05;;;57.20;;
36585;SDS011;22591;48.314;11.562;2022-08-21T04:41:10;59.95;;;54.65;;
36585;SDS011;22591;48.314;11.562;2022-08-21T04:43:37;60.47;;;55.20;;
36585;SDS011;22591;48.314;11.562;2022-08-21T04:46:03;60.38;;;55.20;;
36585;SDS011;22591;48.314;11.562;2022-08-21T04:48:29;63.80;;;57.92;;
36585;SDS011;22591;48.314;11.562;2022-08-21T04:53:40;60.65;;;55.38;;
36585;SDS011;22591;48.314;11.562;2022-08-21T04:56:09;61.38;;;55.67;;
36585;SDS011;22591;48.314;11.562;2022-08-21T04:58:40;62.63;;;57.05;;
36585;SDS011;22591;48.314;11.562;2022-08-21T05:01:08;57.70;;;52.63;;
36585;SDS011;22591;48.314;11.562;2022-08-21T05:03:38;54.37;;;49.87;;
36585;SDS011;22591;48.314;11.562;2022-08-21T05:06:06;55.50;;;50.90;;
36585;SDS011;22591;48.314;11.562;2022-08-21T05:08:33;53.63;;;49.13;;
36585;SDS011;22591;48.314;11.562;2022-08-21T05:10:59;51.08;;;47.13;;
36585;SDS011;22591;48.314;11.562;2022-08-21T05:13:25;52.75;;;48.17;;
36585;SDS011;22591;48.314;11.562;2022-08-21T05:15:50;49.97;;;45.88;;
36585;SDS011;22591;48.314;11.562;2022-08-21T05:18:16;50.80;;;47.00;;
36585;SDS011;22591;48.314;11.562;2022-08-21T05:20:42;46.58;;;43.25;;
36585;SDS011;22591;48.314;11.562;2022-08-21T05:23:10;49.58;;;46.08;;
36585;SDS011;22591;48.314;11.562;2022-08-21T05:25:37;49.28;;;45.67;;
36585;SDS011;22591;48.314;11.562;2022-08-21T05:28:03;45.40;;;42.05;;
36585;SDS011;22591;48.314;11.562;2022-08-21T05:30:29;46.50;;;42.88;;
36585;SDS011;22591;48.314;11.562;2022-08-21T05:32:58;45.78;;;42.65;;
36585;SDS011;22591;48.314;11.562;2022-08-21T05:35:25;43.08;;;40.35;;
36585;SDS011;22591;48.314;11.562;2022-08-21T05:37:53;43.80;;;40.90;;
36585;SDS011;22591;48.314;11.562;2022-08-21T05:40:18;44.33;;;41.15;;
36585;SDS011;22591;48.314;11.562;2022-08-21T05:42:44;43.33;;;40.53;;
36585;SDS011;22591;48.314;11.562;2022-08-21T05:45:09;41.55;;;38.95;;
36585;SDS011;22591;48.314;11.562;2022-08-21T05:47:35;43.78;;;40.97;;
36585;SDS011;22591;48.314;11.562;2022-08-21T05:50:01;37.47;;;35.22;;
36585;SDS011;22591;48.314;11.562;2022-08-21T05:52:27;34.00;;;32.20;;
36585;SDS011;22591;48.314;11.562;2022-08-21T05:54:53;40.10;;;37.72;;
36585;SDS011;22591;48.314;11.562;2022-08-21T05:57:19;38.92;;;36.42;;
36585;SDS011;22591;48.314;11.562;2022-08-21T05:59:45;38.63;;;36.33;;
36585;SDS011;22591;48.314;11.562;2022-08-21T06:02:11;39.58;;;37.38;;
36585;SDS011;22591;48.314;11.562;2022-08-21T06:04:37;37.15;;;35.15;;
36585;SDS011;22591;48.314;11.562;2022-08-21T06:07:04;32.45;;;30.58;;
36585;SDS011;22591;48.314;11.562;2022-08-21T06:09:30;31.95;;;30.15;;
36585;SDS011;22591;48.314;11.562;2022-08-21T06:11:56;31.90;;;30.27;;
36585;SDS011;22591;48.314;11.562;2022-08-21T06:14:21;19.60;;;18.58;;
36585;SDS011;22591;48.314;11.562;2022-08-21T06:16:47;25.38;;;24.17;;
36585;SDS011;22591;48.314;11.562;2022-08-21T06:19:12;16.10;;;15.35;;
36585;SDS011;22591;48.314;11.562;2022-08-21T06:21:38;12.95;;;12.18;;
36585;SDS011;22591;48.314;11.562;2022-08-21T06:24:04;20.35;;;19.05;;
36585;SDS011;22591;48.314;11.562;2022-08-21T06:26:30;9.43;;;8.80;;
36585;SDS011;22591;48.314;11.562;2022-08-21T06:28:56;10.43;;;9.82;;
36585;SDS011;22591;48.314;11.562;2022-08-21T06:31:23;11.57;;;10.98;;
36585;SDS011;22591;48.314;11.562;2022-08-21T06:33:50;9.48;;;8.98;;
36585;SDS011;22591;48.314;11.562;2022-08-21T06:36:17;4.97;;;4.68;;
36585;SDS011;22591;48.314;11.562;2022-08-21T06:38:43;5.95;;;5.35;;
36585;SDS011;22591;48.314;11.562;2022-08-21T06:41:09;6.28;;;5.90;;
36585;SDS011;22591;48.314;11.562;2022-08-21T06:43:35;5.80;;;4.75;;
36585;SDS011;22591;48.314;11.562;2022-08-21T06:46:01;7.32;;;5.72;;
36585;SDS011;22591;48.314;11.562;2022-08-21T06:48:27;6.20;;;4.25;;
36585;SDS011;22591;48.314;11.562;2022-08-21T06:50:54;5.65;;;5.30;;
36585;SDS011;22591;48.314;11.562;2022-08-21T06:53:20;6.78;;;6.22;;
36585;SDS011;22591;48.314;11.562;2022-08-21T06:55:47;5.70;;;5.20;;
36585;SDS011;22591;48.314;11.562;2022-08-21T06:58:13;8.68;;;6.45;;
36585;SDS011;22591;48.314;11.562;2022-08-21T07:00:44;5.40;;;4.90;;
36585;SDS011;22591;48.314;11.562;2022-08-21T07:03:19;4.80;;;4.38;;
36585;SDS011;22591;48.314;11.562;2022-08-21T07:05:47;5.65;;;5.13;;
36585;SDS011;22591;48.314;11.562;2022-08-21T07:08:13;5.75;;;5.35;;
36585;SDS011;22591;48.314;11.562;2022-08-21T07:10:39;6.10;;;5.43;;
36585;SDS011;22591;48.314;11.562;2022-08-21T07:13:04;6.53;;;5.00;;
36585;SDS011;22591;48.314;11.562;2022-08-21T07:15:30;4.97;;;4.68;;
36585;SDS011;22591;48.314;11.562;2022-08-21T07:17:56;6.38;;;5.03;;
36585;SDS011;22591;48.314;11.562;2022-08-21T07:20:23;6.82;;;5.47;;
36585;SDS011;22591;48.314;11.562;2022-08-21T07:22:49;6.22;;;5.70;;
36585;SDS011;22591;48.314;11.562;2022-08-21T07:25:15;6.25;;;5.68;;
36585;SDS011;22591;48.314;11.562;2022-08-21T07:27:41;4.88;;;4.43;;
36585;SDS011;22591;48.314;11.562;2022-08-21T07:30:06;4.53;;;4.22;;
36585;SDS011;22591;48.314;11.562;2022-08-21T07:32:32;5.57;;;5.15;;
36585;SDS011;22591;48.314;11.562;2022-08-21T07:34:58;5.28;;;4.95;;
36585;SDS011;22591;48.314;11.562;2022-08-21T07:37:23;5.55;;;5.05;;
36585;SDS011;22591;48.314;11.562;2022-08-21T07:39:49;6.03;;;5.10;;
36585;SDS011;22591;48.314;11.562;2022-08-21T07:42:16;6.05;;;5.55;;
36585;SDS011;22591;48.314;11.562;2022-08-21T07:44:42;5.47;;;4.97;;
36585;SDS011;22591;48.314;11.562;2022-08-21T07:47:07;4.60;;;4.30;;
36585;SDS011;22591;48.314;11.562;2022-08-21T07:49:33;6.65;;;4.97;;
36585;SDS011;22591;48.314;11.562;2022-08-21T07:51:59;7.47;;;5.53;;
36585;SDS011;22591;48.314;11.562;2022-08-21T07:54:25;5.07;;;4.70;;
36585;SDS011;22591;48.314;11.562;2022-08-21T07:56:51;5.80;;;5.30;;
36585;SDS011;22591;48.314;11.562;2022-08-21T07:59:16;7.72;;;4.57;;
36585;SDS011;22591;48.314;11.562;2022-08-21T08:01:42;5.25;;;4.82;;
36585;SDS011;22591;48.314;11.562;2022-08-21T08:04:08;5.60;;;5.20;;
36585;SDS011;22591;48.314;11.562;2022-08-21T08:06:33;6.40;;;5.80;;
36585;SDS011;22591;48.314;11.562;2022-08-21T08:08:59;6.93;;;6.53;;
36585;SDS011;22591;48.314;11.562;2022-08-21T08:11:28;6.35;;;5.75;;
36585;SDS011;22591;48.314;11.562;2022-08-21T08:13:54;6.22;;;5.68;;
36585;SDS011;22591;48.314;11.562;2022-08-21T08:16:22;12.15;;;5.80;;
36585;SDS011;22591;48.314;11.562;2022-08-21T08:18:47;7.05;;;6.45;;
36585;SDS011;22591;48.314;11.562;2022-08-21T08:21:13;6.32;;;5.78;;
36585;SDS011;22591;48.314;11.562;2022-08-21T08:23:39;7.05;;;5.90;;
36585;SDS011;22591;48.314;11.562;2022-08-21T08:26:05;6.68;;;5.93;;
36585;SDS011;22591;48.314;11.562;2022-08-21T08:28:31;5.45;;;5.15;;
36585;SDS011;22591;48.314;11.562;2022-08-21T08:30:58;6.32;;;5.93;;
36585;SDS011;22591;48.314;11.562;2022-08-21T08:33:24;7.05;;;6.35;;
36585;SDS011;22591;48.314;11.562;2022-08-21T08:35:50;7.00;;;6.40;;
36585;SDS011;22591;48.314;11.562;2022-08-21T08:38:17;5.85;;;5.40;;
36585;SDS011;22591;48.314;11.562;2022-08-21T08:43:37;7.13;;;6.68;;
36585;SDS011;22591;48.314;11.562;2022-08-21T08:46:05;6.70;;;6.00;;
36585;SDS011;22591;48.314;11.562;2022-08-21T08:48:54;7.47;;;6.88;;
36585;SDS011;22591;48.314;11.562;2022-08-21T08:51:42;8.00;;;6.00;;
36585;SDS011;22591;48.314;11.562;2022-08-21T08:54:23;7.07;;;6.55;;
36585;SDS011;22591;48.314;11.562;2022-08-21T08:57:07;6.85;;;6.35;;
36585;SDS011;22591;48.314;11.562;2022-08-21T08:59:43;10.00;;;6.93;;
36585;SDS011;22591;48.314;11.562;2022-08-21T09:02:14;7.55;;;6.85;;
36585;SDS011;22591;48.314;11.562;2022-08-21T09:04:42;6.68;;;6.05;;
36585;SDS011;22591;48.314;11.562;2022-08-21T09:07:25;7.65;;;7.13;;
36585;SDS011;22591;48.314;11.562;2022-08-21T09:18:41;7.05;;;6.55;;
36585;SDS011;22591;48.314;11.562;2022-08-21T09:21:44;7.72;;;7.13;;
36585;SDS011;22591;48.314;11.562;2022-08-21T09:24:32;7.60;;;6.72;;
36585;SDS011;22591;48.314;11.562;2022-08-21T09:29:40;8.13;;;6.28;;
36585;SDS011;22591;48.314;11.562;2022-08-21T09:32:15;7.55;;;6.65;;
36585;SDS011;22591;48.314;11.562;2022-08-21T09:37:22;7.18;;;6.68;;
36585;SDS011;22591;48.314;11.562;2022-08-21T09:39:48;7.35;;;6.85;;
36585;SDS011;22591;48.314;11.562;2022-08-21T09:42:20;6.72;;;6.07;;
36585;SDS011;22591;48.314;11.562;2022-08-21T09:44:48;6.32;;;5.90;;
36585;SDS011;22591;48.314;11.562;2022-08-21T09:47:13;7.38;;;6.65;;
36585;SDS011;22591;48.314;11.562;2022-08-21T09:49:44;8.00;;;6.43;;
36585;SDS011;22591;48.314;11.562;2022-08-21T09:52:19;6.25;;;5.85;;
36585;SDS011;22591;48.314;11.562;2022-08-21T09:54:48;7.07;;;6.50;;
36585;SDS011;22591;48.314;11.562;2022-08-21T09:57:24;6.50;;;6.00;;
36585;SDS011;22591;48.314;11.562;2022-08-21T10:00:26;6.85;;;6.45;;
36585;SDS011;22591;48.314;11.562;2022-08-21T10:02:55;6.57;;;6.00;;
36585;SDS011;22591;48.314;11.562;2022-08-21T10:05:37;6.40;;;5.97;;
36585;SDS011;22591;48.314;11.562;2022-08-21T10:08:03;5.70;;;5.30;;
36585;SDS011;22591;48.314;11.562;2022-08-21T10:10:31;5.30;;;4.90;;
36585;SDS011;22591;48.314;11.562;2022-08-21T10:13:06;5.28;;;4.97;;
36585;SDS011;22591;48.314;11.562;2022-08-21T10:20:47;5.47;;;5.10;;
36585;SDS011;22591;48.314;11.562;2022-08-21T10:26:05;4.88;;;4.57;;
36585;SDS011;22591;48.314;11.562;2022-08-21T10:31:57;4.57;;;4.38;;
36585;SDS011;22591;48.314;11.562;2022-08-21T10:39:51;4.75;;;4.45;;
36585;SDS011;22591;48.314;11.562;2022-08-21T10:48:19;4.20;;;3.80;;
36585;SDS011;22591;48.314;11.562;2022-08-21T10:55:52;4.10;;;3.85;;
36585;SDS011;22591;48.314;11.562;2022-08-21T10:58:25;4.70;;;4.40;;
36585;SDS011;22591;48.314;11.562;2022-08-21T11:00:56;4.72;;;4.50;;
36585;SDS011;22591;48.314;11.562;2022-08-21T11:03:37;4.10;;;3.90;;
36585;SDS011;22591;48.314;11.562;2022-08-21T11:08:55;3.60;;;3.40;;
36585;SDS011;22591;48.314;11.562;2022-08-21T11:14:21;3.55;;;3.35;;
36585;SDS011;22591;48.314;11.562;2022-08-21T11:17:00;5.45;;;3.15;;
36585;SDS011;22591;48.314;11.562;2022-08-21T11:19:42;3.75;;;3.47;;
36585;SDS011;22591;48.314;11.562;2022-08-21T11:22:16;3.88;;;3.60;;
36585;SDS011;22591;48.314;11.562;2022-08-21T11:27:41;3.25;;;2.60;;
36585;SDS011;22591;48.314;11.562;2022-08-21T11:30:17;3.50;;;2.60;;
36585;SDS011;22591;48.314;11.562;2022-08-21T11:32:58;2.72;;;2.10;;
36585;SDS011;22591;48.314;11.562;2022-08-21T11:35:46;3.13;;;2.92;;
36585;SDS011;22591;48.314;11.562;2022-08-21T11:38:22;3.53;;;2.95;;
36585;SDS011;22591;48.314;11.562;2022-08-21T11:41:35;2.92;;;2.72;;
36585;SDS011;22591;48.314;11.562;2022-08-21T11:43:46;5.68;;;3.33;;
36585;SDS011;22591;48.314;11.562;2022-08-21T11:46:49;3.25;;;2.90;;
36585;SDS011;22591;48.314;11.562;2022-08-21T11:55:06;3.33;;;3.13;;
36585;SDS011;22591;48.314;11.562;2022-08-21T12:00:41;3.83;;;3.38;;
36585;SDS011;22591;48.314;11.562;2022-08-21T12:03:11;3.33;;;2.67;;
36585;SDS011;22591;48.314;11.562;2022-08-21T12:05:41;3.22;;;3.03;;
36585;SDS011;22591;48.314;11.562;2022-08-21T12:08:26;3.42;;;2.97;;
36585;SDS011;22591;48.314;11.562;2022-08-21T12:11:26;3.13;;;2.83;;
36585;SDS011;22591;48.314;11.562;2022-08-21T12:26:49;2.53;;;2.33;;
36585;SDS011;22591;48.314;11.562;2022-08-21T12:32:01;2.45;;;2.25;;
36585;SDS011;22591;48.314;11.562;2022-08-21T12:34:41;2.60;;;2.40;;
36585;SDS011;22591;48.314;11.562;2022-08-21T12:40:27;2.80;;;2.35;;
36585;SDS011;22591;48.314;11.562;2022-08-21T12:43:02;3.90;;;2.35;;
36585;SDS011;22591;48.314;11.562;2022-08-21T12:45:33;2.63;;;2.45;;
36585;SDS011;22591;48.314;11.562;2022-08-21T12:48:06;2.65;;;2.45;;
36585;SDS011;22591;48.314;11.562;2022-08-21T12:50:42;3.65;;;2.95;;
36585;SDS011;22591;48.314;11.562;2022-08-21T12:55:51;2.47;;;2.28;;
36585;SDS011;22591;48.314;11.562;2022-08-21T12:58:18;2.80;;;2.53;;
36585;SDS011;22591;48.314;11.562;2022-08-21T13:00:47;2.17;;;2.03;;
36585;SDS011;22591;48.314;11.562;2022-08-21T13:03:15;2.35;;;2.15;;
36585;SDS011;22591;48.314;11.562;2022-08-21T13:05:41;2.50;;;2.30;;
36585;SDS011;22591;48.314;11.562;2022-08-21T13:08:08;2.67;;;2.00;;
36585;SDS011;22591;48.314;11.562;2022-08-21T13:10:36;3.03;;;2.13;;
36585;SDS011;22591;48.314;11.562;2022-08-21T13:13:05;2.38;;;2.28;;
36585;SDS011;22591;48.314;11.562;2022-08-21T13:15:35;2.30;;;2.10;;
36585;SDS011;22591;48.314;11.562;2022-08-21T13:18:04;2.88;;;2.20;;
36585;SDS011;22591;48.314;11.562;2022-08-21T13:20:32;2.55;;;2.13;;
36585;SDS011;22591;48.314;11.562;2022-08-21T13:23:01;1.85;;;1.75;;
36585;SDS011;22591;48.314;11.562;2022-08-21T13:25:29;3.58;;;2.30;;
36585;SDS011;22591;48.314;11.562;2022-08-21T13:28:09;2.17;;;2.08;;
36585;SDS011;22591;48.314;11.562;2022-08-21T13:30:45;2.58;;;2.38;;
36585;SDS011;22591;48.314;11.562;2022-08-21T13:33:15;2.47;;;2.35;;
36585;SDS011;22591;48.314;11.562;2022-08-21T13:38:22;5.55;;;2.47;;
36585;SDS011;22591;48.314;11.562;2022-08-21T13:40:53;2.83;;;2.63;;
36585;SDS011;22591;48.314;11.562;2022-08-21T13:43:25;2.22;;;2.13;;
36585;SDS011;22591;48.314;11.562;2022-08-21T13:45:53;6.55;;;2.65;;
36585;SDS011;22591;48.314;11.562;2022-08-21T13:48:21;2.60;;;2.45;;
36585;SDS011;22591;48.314;11.562;2022-08-21T13:50:49;2.25;;;2.15;;
36585;SDS011;22591;48.314;11.562;2022-08-21T13:53:20;2.80;;;2.60;;
36585;SDS011;22591;48.314;11.562;2022-08-21T13:55:52;2.25;;;2.15;;
36585;SDS011;22591;48.314;11.562;2022-08-21T13:58:51;2.10;;;1.92;;
36585;SDS011;22591;48.314;11.562;2022-08-21T14:01:22;2.20;;;2.10;;
36585;SDS011;22591;48.314;11.562;2022-08-21T14:04:04;2.33;;;2.13;;
36585;SDS011;22591;48.314;11.562;2022-08-21T14:06:44;5.05;;;2.45;;
36585;SDS011;22591;48.314;11.562;2022-08-21T14:09:12;2.22;;;2.13;;
36585;SDS011;22591;48.314;11.562;2022-08-21T14:11:50;3.05;;;2.75;;
36585;SDS011;22591;48.314;11.562;2022-08-21T14:14:24;2.75;;;2.55;;
36585;SDS011;22591;48.314;11.562;2022-08-21T14:17:00;2.53;;;2.38;;
36585;SDS011;22591;48.314;11.562;2022-08-21T14:19:38;2.38;;;2.25;;
36585;SDS011;22591;48.314;11.562;2022-08-21T14:22:22;2.78;;;2.67;;
36585;SDS011;22591;48.314;11.562;2022-08-21T14:25:05;2.30;;;2.13;;
36585;SDS011;22591;48.314;11.562;2022-08-21T14:30:42;3.53;;;2.60;;
36585;SDS011;22591;48.314;11.562;2022-08-21T14:33:10;5.57;;;2.83;;
36585;SDS011;22591;48.314;11.562;2022-08-21T14:35:38;2.65;;;2.45;;
36585;SDS011;22591;48.314;11.562;2022-08-21T14:38:17;4.03;;;2.75;;
36585;SDS011;22591;48.314;11.562;2022-08-21T14:40:47;3.15;;;2.72;;
36585;SDS011;22591;48.314;11.562;2022-08-21T14:43:16;3.85;;;2.63;;
36585;SDS011;22591;48.314;11.562;2022-08-21T14:45:42;3.30;;;2.65;;
36585;SDS011;22591;48.314;11.562;2022-08-21T14:48:08;2.88;;;2.65;;
36585;SDS011;22591;48.314;11.562;2022-08-21T14:50:34;5.00;;;2.83;;
36585;SDS011;22591;48.314;11.562;2022-08-21T14:53:00;4.32;;;2.92;;
36585;SDS011;22591;48.314;11.562;2022-08-21T14:55:26;3.40;;;3.20;;
36585;SDS011;22591;48.314;11.562;2022-08-21T14:57:52;4.38;;;2.53;;
36585;SDS011;22591;48.314;11.562;2022-08-21T15:00:21;2.92;;;2.72;;
36585;SDS011;22591;48.314;11.562;2022-08-21T15:02:49;3.83;;;2.63;;
36585;SDS011;22591;48.314;11.562;2022-08-21T15:05:15;3.58;;;2.80;;
36585;SDS011;22591;48.314;11.562;2022-08-21T15:07:41;3.20;;;3.00;;
36585;SDS011;22591;48.314;11.562;2022-08-21T15:10:07;2.63;;;2.30;;
36585;SDS011;22591;48.314;11.562;2022-08-21T15:12:33;2.92;;;2.70;;
36585;SDS011;22591;48.314;11.562;2022-08-21T15:14:59;3.10;;;2.70;;
36585;SDS011;22591;48.314;11.562;2022-08-21T15:17:25;3.63;;;2.10;;
36585;SDS011;22591;48.314;11.562;2022-08-21T15:19:51;4.18;;;2.65;;
36585;SDS011;22591;48.314;11.562;2022-08-21T15:22:16;3.60;;;2.85;;
36585;SDS011;22591;48.314;11.562;2022-08-21T15:24:42;2.78;;;2.60;;
36585;SDS011;22591;48.314;11.562;2022-08-21T15:27:08;3.17;;;2.70;;
36585;SDS011;22591;48.314;11.562;2022-08-21T15:29:35;4.53;;;2.30;;
36585;SDS011;22591;48.314;11.562;2022-08-21T15:32:15;3.47;;;3.17;;
36585;SDS011;22591;48.314;11.562;2022-08-21T15:34:43;4.65;;;2.65;;
36585;SDS011;22591;48.314;11.562;2022-08-21T15:37:09;2.85;;;2.65;;
36585;SDS011;22591;48.314;11.562;2022-08-21T15:39:34;4.50;;;2.50;;
36585;SDS011;22591;48.314;11.562;2022-08-21T15:42:01;2.58;;;2.38;;
36585;SDS011;22591;48.314;11.562;2022-08-21T15:44:27;2.67;;;2.47;;
36585;SDS011;22591;48.314;11.562;2022-08-21T15:46:54;3.50;;;3.13;;
36585;SDS011;22591;48.314;11.562;2022-08-21T15:49:21;2.78;;;2.58;;
36585;SDS011;22591;48.314;11.562;2022-08-21T15:51:46;3.67;;;2.55;;
36585;SDS011;22591;48.314;11.562;2022-08-21T15:54:12;2.58;;;2.47;;
36585;SDS011;22591;48.314;11.562;2022-08-21T15:56:38;2.67;;;2.47;;
36585;SDS011;22591;48.314;11.562;2022-08-21T15:59:13;2.85;;;2.55;;
36585;SDS011;22591;48.314;11.562;2022-08-21T16:01:42;2.85;;;2.65;;
36585;SDS011;22591;48.314;11.562;2022-08-21T16:04:08;3.55;;;2.72;;
36585;SDS011;22591;48.314;11.562;2022-08-21T16:06:35;3.17;;;2.40;;